createdAt,value
2023-01-20T00:01:37.308Z,81.75
2023-01-20T00:06:39.742Z,90.53
2023-01-20T00:11:44.597Z,91.00
2023-01-20T00:16:47.053Z,99.78
2023-01-20T00:21:49.544Z,81.82
2023-01-20T00:26:53.325Z,85.22
2023-01-20T00:31:55.785Z,73.20
2023-01-20T00:36:58.178Z,63.60
2023-01-20T00:42:01.941Z,62.67
2023-01-20T00:47:04.378Z,62.95
2023-01-20T00:52:07.821Z,54.90
2023-01-20T00:57:11.766Z,53.97
2023-01-20T01:02:14.314Z,53.50
2023-01-20T01:07:16.730Z,48.35
2023-01-20T01:12:20.593Z,42.38
2023-01-20T01:17:23.742Z,49.58
2023-01-20T01:22:27.012Z,45.83
2023-01-20T01:27:31.010Z,35.67
2023-01-20T01:32:33.451Z,32.70
2023-01-20T01:37:35.917Z,30.42
2023-01-20T01:42:42.006Z,29.02
2023-01-20T01:47:46.477Z,31.52
2023-01-20T01:52:50.825Z,24.35
2023-01-20T01:57:55.460Z,23.23
2023-01-20T02:02:57.948Z,22.83
2023-01-20T02:08:00.509Z,19.40
2023-01-20T02:13:04.511Z,19.40
2023-01-20T02:18:12.028Z,20.73
2023-01-20T02:23:20.816Z,20.73
2023-01-20T02:28:52.592Z,20.33
2023-01-20T02:33:59.050Z,21.80
2023-01-20T02:39:03.898Z,19.98
2023-01-20T02:44:09.861Z,21.67
2023-01-20T02:49:16.875Z,26.65
2023-01-20T02:54:21.537Z,26.92
2023-01-20T02:59:25.767Z,25.98
2023-01-20T03:04:31.669Z,29.50
2023-01-20T03:09:37.219Z,26.42
2023-01-20T03:14:39.904Z,27.27
2023-01-20T03:19:43.765Z,31.23
2023-01-20T03:24:48.515Z,36.25
2023-01-20T03:29:50.959Z,39.20
2023-01-20T03:34:56.398Z,36.40
2023-01-20T03:39:59.167Z,40.90
2023-01-20T03:45:04.633Z,39.43
2023-01-20T03:50:11.367Z,41.28
2023-01-20T03:55:16.520Z,44.10
2023-01-20T04:00:20.988Z,43.20
2023-01-20T04:05:24.896Z,44.00
2023-01-20T04:10:28.339Z,46.30
2023-01-20T04:15:33.846Z,44.92
2023-01-20T04:20:37.741Z,48.00
2023-01-20T04:25:40.249Z,40.45
2023-01-20T04:30:42.761Z,45.63
2023-01-20T04:35:46.631Z,44.40
2023-01-20T04:40:49.086Z,43.58
2023-01-20T04:45:51.704Z,40.38
2023-01-20T04:50:55.547Z,38.17
2023-01-20T04:55:57.937Z,44.03
2023-01-20T05:01:02.254Z,45.47
2023-01-20T05:06:07.031Z,46.25
2023-01-20T05:11:09.409Z,38.58
2023-01-20T05:16:12.641Z,42.13
2023-01-20T05:21:16.633Z,43.17
2023-01-20T05:26:19.076Z,40.55
2023-01-20T05:31:21.697Z,40.30
2023-01-20T05:36:25.651Z,44.53
2023-01-20T05:41:28.183Z,42.30
2023-01-20T05:46:30.751Z,52.72
2023-01-20T05:51:34.644Z,53.45
2023-01-20T05:56:37.019Z,47.78
2023-01-20T06:01:40.548Z,53.67
2023-01-20T06:06:44.402Z,53.55
2023-01-20T06:11:46.946Z,57.13
2023-01-20T06:16:49.434Z,62.13
2023-01-20T06:21:53.870Z,59.58
2023-01-20T06:26:56.323Z,65.38
2023-01-20T06:31:58.795Z,67.70
2023-01-20T06:37:02.923Z,62.47
2023-01-20T06:42:05.546Z,61.55
2023-01-20T06:47:08.039Z,62.33
2023-01-20T06:52:11.892Z,61.65
2023-01-20T06:57:14.373Z,69.25
2023-01-20T07:02:16.914Z,60.20
2023-01-20T07:07:20.823Z,60.17
2023-01-20T07:12:23.339Z,63.60
2023-01-20T07:17:25.809Z,61.67
2023-01-20T07:22:29.630Z,63.70
2023-01-20T07:27:32.280Z,60.17
2023-01-20T07:32:34.799Z,58.95
2023-01-20T07:37:38.578Z,50.78
2023-01-20T07:42:41.134Z,51.65
2023-01-20T07:47:43.574Z,51.25
2023-01-20T07:52:47.580Z,58.58
2023-01-20T07:57:50.827Z,51.75
2023-01-20T08:02:53.333Z,51.00
2023-01-20T08:07:57.251Z,51.67
2023-01-20T08:12:59.931Z,49.75
2023-01-20T08:18:03.362Z,48.70
2023-01-20T08:23:07.157Z,46.47
2023-01-20T08:28:09.690Z,54.67
2023-01-20T08:33:12.329Z,48.63
2023-01-20T08:38:16.155Z,55.38
2023-01-20T08:43:18.719Z,51.47
2023-01-20T08:48:21.475Z,56.00
2023-01-20T08:53:26.205Z,48.87
2023-01-20T08:58:29.263Z,46.03
2023-01-20T09:03:33.188Z,46.97
2023-01-20T09:08:38.038Z,46.25
2023-01-20T09:13:41.069Z,46.47
2023-01-20T09:18:44.558Z,47.33
2023-01-20T09:28:52.031Z,42.00
2023-01-20T09:33:54.558Z,49.40
2023-01-20T09:39:14.670Z,50.08
2023-01-20T09:44:25.984Z,48.15
2023-01-20T09:49:51.089Z,41.17
2023-01-20T09:54:57.526Z,54.13
2023-01-20T10:00:04.766Z,43.00
2023-01-20T10:05:12.470Z,42.15
2023-01-20T10:10:17.996Z,48.75
2023-01-20T10:15:25.511Z,42.03
2023-01-20T10:20:30.420Z,46.63
2023-01-20T10:25:37.816Z,44.20
2023-01-20T10:30:42.002Z,41.78
2023-01-20T10:35:47.323Z,45.63
2023-01-20T10:40:52.948Z,38.75
2023-01-20T10:46:02.433Z,47.25
2023-01-20T10:51:06.673Z,36.67
2023-01-20T10:56:27.134Z,38.28
2023-01-20T11:01:30.996Z,37.53
2023-01-20T11:06:34.121Z,43.00
2023-01-20T11:11:37.729Z,34.13
2023-01-20T11:16:44.837Z,35.80
2023-01-20T11:21:49.210Z,38.03
2023-01-20T11:26:51.928Z,33.35
2023-01-20T11:31:56.543Z,30.87
2023-01-20T11:37:17.590Z,39.70
2023-01-20T11:42:21.370Z,35.85
2023-01-20T11:47:26.213Z,38.15
2023-01-20T11:52:28.845Z,41.85
2023-01-20T11:57:31.603Z,45.80
2023-01-20T12:02:35.546Z,39.93
2023-01-20T12:07:40.714Z,41.22
2023-01-20T12:12:46.312Z,39.45
2023-01-20T12:17:55.194Z,40.25
2023-01-20T12:23:05.748Z,41.15
2023-01-20T12:28:13.654Z,40.90
2023-01-20T12:33:21.862Z,42.20
2023-01-20T12:38:24.922Z,41.40
2023-01-20T12:43:33.602Z,42.58
2023-01-20T12:48:42.728Z,34.67
2023-01-20T12:53:58.039Z,43.67
2023-01-20T12:59:04.376Z,44.80
2023-01-20T13:04:26.285Z,40.17
2023-01-20T13:09:41.567Z,43.10
2023-01-20T13:14:46.084Z,42.85
2023-01-20T13:19:50.215Z,43.25
2023-01-20T13:24:53.410Z,42.17
2023-01-20T13:29:57.255Z,42.92
2023-01-20T13:35:01.889Z,43.20
2023-01-20T13:40:04.979Z,35.55
2023-01-20T13:45:16.183Z,34.30
2023-01-20T13:50:24.693Z,39.20
2023-01-20T13:55:28.885Z,42.72
2023-01-20T14:00:31.415Z,36.47
2023-01-20T14:05:35.279Z,37.20
2023-01-20T14:10:37.688Z,39.40
2023-01-20T14:15:41.094Z,36.75
2023-01-20T14:25:57.141Z,37.83
2023-01-20T14:31:19.617Z,31.17
2023-01-20T14:36:23.182Z,35.03
2023-01-20T14:41:31.497Z,39.50
2023-01-20T14:46:34.965Z,31.75
2023-01-20T14:51:37.508Z,34.88
2023-01-20T14:56:47.896Z,30.50
2023-01-20T15:01:54.455Z,32.08
2023-01-20T15:06:57.897Z,27.73
2023-01-20T15:12:19.149Z,32.58
2023-01-20T15:17:22.977Z,34.83
2023-01-20T15:22:27.175Z,33.67
2023-01-20T15:27:32.174Z,33.97
2023-01-20T15:32:35.890Z,41.53
2023-01-20T15:37:38.396Z,34.88
2023-01-20T15:42:40.883Z,39.20
2023-01-20T15:47:45.169Z,39.47
2023-01-20T15:52:48.031Z,40.25
2023-01-20T15:57:52.581Z,35.10
2023-01-20T16:02:56.408Z,35.45
2023-01-20T16:07:58.889Z,40.15
2023-01-20T16:13:01.442Z,39.35
2023-01-20T16:18:05.612Z,39.13
2023-01-20T16:23:08.187Z,37.10
2023-01-20T16:28:14.416Z,36.25
2023-01-20T16:33:19.375Z,37.08
2023-01-20T16:38:23.254Z,39.38
2023-01-20T16:43:25.738Z,42.10
2023-01-20T16:48:29.556Z,37.92
2023-01-20T16:53:32.084Z,41.08
2023-01-20T16:58:34.688Z,41.13
2023-01-20T17:03:38.695Z,41.83
2023-01-20T17:08:43.843Z,45.78
2023-01-20T17:13:46.365Z,50.80
2023-01-20T17:18:51.454Z,44.30
2023-01-20T17:23:54.576Z,44.20
2023-01-20T17:28:57.635Z,51.28
2023-01-20T17:34:01.538Z,47.65
2023-01-20T17:39:04.815Z,41.05
2023-01-20T17:44:07.345Z,44.22
2023-01-20T17:49:11.202Z,44.30
2023-01-20T17:54:15.724Z,48.90
2023-01-20T17:59:18.797Z,44.15
2023-01-20T18:04:22.894Z,44.28
2023-01-20T18:09:25.506Z,49.88
2023-01-20T18:14:27.962Z,53.30
2023-01-20T18:19:31.917Z,47.53
2023-01-20T18:24:34.618Z,44.75
2023-01-20T18:29:37.106Z,44.90
2023-01-20T18:34:40.875Z,43.05
2023-01-20T18:39:43.953Z,45.72
2023-01-20T18:44:46.548Z,41.90
2023-01-20T18:49:50.419Z,44.28
2023-01-20T18:54:52.820Z,44.70
2023-01-20T18:59:55.228Z,40.65
2023-01-20T19:04:59.162Z,39.47
2023-01-20T19:10:01.729Z,37.42
2023-01-20T19:15:04.570Z,36.27
2023-01-20T19:20:09.728Z,37.67
2023-01-20T19:25:12.297Z,44.85
2023-01-20T19:30:15.462Z,41.65
2023-01-20T19:35:20.803Z,43.22
2023-01-20T19:40:23.375Z,47.83
2023-01-20T19:45:36.692Z,53.30
2023-01-20T19:50:48.579Z,50.28
2023-01-20T19:55:51.303Z,37.53
2023-01-20T20:00:53.961Z,47.87
2023-01-20T20:05:58.461Z,46.23
2023-01-20T20:11:01.990Z,47.97
2023-01-20T20:16:05.542Z,48.60
2023-01-20T20:26:13.411Z,61.90
2023-01-20T20:31:16.025Z,60.45
2023-01-20T20:36:18.762Z,53.40
2023-01-20T20:41:25.909Z,48.97
2023-01-20T20:46:28.475Z,51.00
2023-01-20T20:51:31.930Z,47.50
2023-01-20T21:01:38.391Z,59.30
2023-01-20T21:06:40.975Z,55.97
2023-01-20T21:11:43.543Z,55.90
2023-01-20T21:16:47.525Z,78.22
2023-01-20T21:21:49.965Z,72.78
2023-01-20T21:26:52.519Z,71.45
2023-01-20T21:31:57.536Z,75.07
2023-01-20T21:37:00.169Z,85.80
2023-01-20T21:42:02.666Z,90.57
2023-01-20T21:47:08.144Z,81.15
2023-01-20T21:52:29.640Z,85.65
2023-01-20T21:57:32.688Z,95.28
2023-01-20T22:02:36.699Z,81.32
2023-01-20T22:07:39.393Z,90.55
2023-01-20T22:12:42.059Z,100.80
2023-01-20T22:17:46.127Z,114.37
2023-01-20T22:22:48.776Z,133.93
2023-01-20T22:27:51.253Z,146.35
2023-01-20T22:32:55.488Z,171.13
2023-01-20T22:37:57.918Z,176.60
2023-01-20T22:43:00.517Z,166.65
2023-01-20T22:48:04.454Z,163.68
2023-01-20T22:53:07.922Z,148.60
2023-01-20T22:58:10.552Z,127.63
2023-01-20T23:03:14.636Z,109.82
2023-01-20T23:08:17.105Z,108.18
2023-01-20T23:13:19.573Z,100.45
2023-01-20T23:18:23.703Z,82.47
2023-01-20T23:23:26.601Z,87.13
2023-01-20T23:28:29.232Z,89.47
2023-01-20T23:33:33.158Z,76.43
2023-01-20T23:38:35.605Z,100.55
2023-01-20T23:43:38.025Z,100.53
2023-01-20T23:48:41.848Z,93.63
2023-01-20T23:53:44.411Z,96.43
2023-01-20T23:58:47.411Z,101.30
